Terminal Aerodrome Forecast
Issued by NWS

Home | Current Version | Previous Version | Text Only | Print | Product List | Glossary On
Versions: 1 2 3 4 5 6 7 8 9 10 11 12 13 14 15 16 17 18 19 20
434
FTAK31 PAJN 230539
TAFAKT
TAF
PAKT 230539Z 2306/2406 14007KT P6SM VCSH FEW010 SCT035 BKN050
     FM231500 14011G20KT 6SM -SHRA BR SCT025 BKN035 OVC050
     FM232100 14018G25KT 4SM -SHRA BR SCT015 BKN025 OVC035
     FM240200 14015KT P6SM -SHRA SCT025 BKN035 OVC050
      AMD LTD TO CLD VIS AND WIND 2306/2315=

USA.gov is the U.S. government's official web portal to all federal, state and local government web resources and services.